createdAt,value
2017-10-26T00:00:59.720Z,-300.38
2017-10-26T00:02:12.072Z,-300.42
2017-10-26T00:03:25.333Z,-300.46
2017-10-26T00:04:37.563Z,-300.49
2017-10-26T00:05:50.854Z,-300.52
2017-10-26T00:07:04.338Z,-300.54
2017-10-26T00:08:17.919Z,-300.57
2017-10-26T00:09:30.132Z,-300.6
2017-10-26T00:10:43.407Z,-300.6
2017-10-26T00:11:56.678Z,-300.54
2017-10-26T00:13:10.011Z,-300.5
2017-10-26T00:14:23.286Z,-300.49
2017-10-26T00:15:36.042Z,-300.5
2017-10-26T00:16:49.367Z,-300.5
2017-10-26T00:18:01.059Z,-300.51
2017-10-26T00:19:14.363Z,-300.53
2017-10-26T00:20:26.553Z,-300.54
2017-10-26T00:21:38.761Z,-300.52
2017-10-26T00:22:52.262Z,-300.54
2017-10-26T00:24:05.813Z,-300.54
2017-10-26T00:25:19.349Z,-300.58
2017-10-26T00:26:32.107Z,-300.59
2017-10-26T00:27:44.873Z,-300.59
2017-10-26T00:28:57.138Z,-300.6
2017-10-26T00:30:09.384Z,-300.6
2017-10-26T00:31:21.593Z,-300.59
2017-10-26T00:32:34.869Z,-300.6
2017-10-26T00:33:47.644Z,-300.6
2017-10-26T00:35:00.386Z,-300.6
2017-10-26T00:36:13.233Z,-300.61
2017-10-26T00:37:26.488Z,-300.62
2017-10-26T00:38:38.761Z,-300.61
2017-10-26T00:39:51.720Z,-300.62
2017-10-26T00:41:04.950Z,-300.64
2017-10-26T00:42:17.682Z,-300.68
2017-10-26T00:43:30.953Z,-300.7
2017-10-26T00:44:43.167Z,-300.71
2017-10-26T00:45:56.505Z,-300.72
2017-10-26T00:47:09.150Z,-300.72
2017-10-26T00:48:21.893Z,-300.71
2017-10-26T00:49:34.622Z,-300.7
2017-10-26T00:50:47.875Z,-300.66
2017-10-26T00:52:01.363Z,-300.61
2017-10-26T00:53:14.640Z,-300.57
2017-10-26T00:54:27.885Z,-300.54
2017-10-26T00:55:40.735Z,-300.53
2017-10-26T00:56:54.763Z,-300.54
2017-10-26T00:58:07.612Z,-300.53
2017-10-26T00:59:20.442Z,-300.52
2017-10-26T01:00:33.196Z,-300.51
2017-10-26T01:01:45.982Z,-300.51
2017-10-26T01:02:58.172Z,-300.51
2017-10-26T01:04:11.502Z,-300.5
2017-10-26T01:05:24.625Z,-300.49
2017-10-26T01:06:37.043Z,-300.51
2017-10-26T01:07:50.040Z,-300.49
2017-10-26T01:09:03.351Z,-300.5
2017-10-26T01:10:15.549Z,-300.5
2017-10-26T01:11:27.761Z,-300.48
2017-10-26T01:12:41.051Z,-300.47
2017-10-26T01:13:53.852Z,-300.48
2017-10-26T01:15:06.647Z,-300.44
2017-10-26T01:16:19.399Z,-300.43
2017-10-26T01:17:32.171Z,-300.42
2017-10-26T01:18:45.443Z,-300.4
2017-10-26T01:19:58.770Z,-300.35
2017-10-26T01:21:12.225Z,-300.33
2017-10-26T01:22:25.493Z,-300.33
2017-10-26T01:23:38.249Z,-300.33
2017-10-26T01:24:50.973Z,-300.31
2017-10-26T01:26:03.714Z,-300.28
2017-10-26T01:27:16.997Z,-300.25
2017-10-26T01:28:30.318Z,-300.25
2017-10-26T01:29:43.859Z,-300.21
2017-10-26T01:30:57.334Z,-300.15
2017-10-26T01:32:11.031Z,-300.14
2017-10-26T01:33:23.844Z,-300.15
2017-10-26T01:34:36.075Z,-300.14
2017-10-26T01:35:49.389Z,-300.13
2017-10-26T01:37:01.274Z,-300.14
2017-10-26T01:38:14.541Z,-300.14
2017-10-26T01:39:27.306Z,-300.15
2017-10-26T01:40:40.568Z,-300.16
2017-10-26T01:41:53.911Z,-300.17
2017-10-26T01:43:07.237Z,-300.18
2017-10-26T01:44:20.675Z,-300.17
2017-10-26T01:45:34.236Z,-300.17
2017-10-26T01:46:48.217Z,-300.18
2017-10-26T01:48:00.945Z,-300.17
2017-10-26T01:49:14.207Z,-300.16
2017-10-26T01:50:26.924Z,-300.14
2017-10-26T01:51:39.668Z,-300.09
2017-10-26T01:52:52.922Z,-300.03
2017-10-26T01:54:06.156Z,-299.99
2017-10-26T01:55:19.437Z,-299.98
2017-10-26T01:56:31.791Z,-299.95
2017-10-26T01:57:45.123Z,-299.97
2017-10-26T01:58:58.230Z,-299.98
2017-10-26T02:00:10.456Z,-299.94
2017-10-26T02:01:22.690Z,-299.92
2017-10-26T02:02:34.956Z,-299.91
2017-10-26T02:03:48.260Z,-299.89
2017-10-26T02:05:01.578Z,-299.88
2017-10-26T02:06:14.343Z,-299.86
2017-10-26T02:07:27.745Z,-299.85
2017-10-26T02:08:40.493Z,-299.85
2017-10-26T02:09:54.144Z,-299.84
2017-10-26T02:11:07.507Z,-299.84
2017-10-26T02:12:20.642Z,-299.84
2017-10-26T02:13:33.903Z,-299.82
2017-10-26T02:14:46.075Z,-299.81
2017-10-26T02:15:59.339Z,-299.83
2017-10-26T02:17:12.647Z,-299.81
2017-10-26T02:18:24.840Z,-299.77
2017-10-26T02:19:38.119Z,-299.77
2017-10-26T02:20:51.407Z,-299.75
2017-10-26T02:22:03.623Z,-299.74
2017-10-26T02:23:16.368Z,-299.72
2017-10-26T02:24:28.625Z,-299.73
2017-10-26T02:25:41.323Z,-299.73
2017-10-26T02:26:54.060Z,-299.75
2017-10-26T02:28:07.286Z,-299.75
2017-10-26T02:29:20.064Z,-299.72
2017-10-26T02:30:32.799Z,-299.71
2017-10-26T02:31:46.091Z,-299.76
2017-10-26T02:32:59.357Z,-299.78
2017-10-26T02:34:12.117Z,-299.79
2017-10-26T02:35:25.425Z,-299.8
2017-10-26T02:36:38.705Z,-299.8
2017-10-26T02:37:51.970Z,-299.78
2017-10-26T02:39:04.725Z,-299.79
2017-10-26T02:40:18.215Z,-299.82
2017-10-26T02:41:31.450Z,-299.8
2017-10-26T02:42:44.198Z,-299.8
2017-10-26T02:43:57.452Z,-299.81
2017-10-26T02:45:10.675Z,-299.82
2017-10-26T02:46:23.409Z,-299.81
2017-10-26T02:47:36.153Z,-299.79
2017-10-26T02:48:49.441Z,-299.76
2017-10-26T02:50:02.683Z,-299.76
2017-10-26T02:51:15.423Z,-299.76
2017-10-26T02:52:27.116Z,-299.75
2017-10-26T02:53:40.391Z,-299.72
2017-10-26T02:54:53.128Z,-299.71
2017-10-26T02:56:06.117Z,-299.73
2017-10-26T02:57:19.441Z,-299.73
2017-10-26T02:58:32.727Z,-299.71
2017-10-26T02:59:45.509Z,-299.72
2017-10-26T03:00:58.262Z,-299.7
2017-10-26T03:02:10.519Z,-299.69
2017-10-26T03:03:23.804Z,-299.68
2017-10-26T03:04:36.581Z,-299.66
2017-10-26T03:05:48.792Z,-299.66
2017-10-26T03:07:02.036Z,-299.66
2017-10-26T03:08:15.283Z,-299.7
2017-10-26T03:09:28.517Z,-299.75
2017-10-26T03:10:41.245Z,-299.76
2017-10-26T03:11:54.532Z,-299.73
2017-10-26T03:13:07.832Z,-299.7
2017-10-26T03:14:21.165Z,-299.68
2017-10-26T03:15:33.900Z,-299.68
2017-10-26T03:16:46.081Z,-299.67
2017-10-26T03:17:59.356Z,-299.69
2017-10-26T03:19:11.538Z,-299.68
2017-10-26T03:20:24.787Z,-299.68
2017-10-26T03:21:37.519Z,-299.67
2017-10-26T03:22:50.226Z,-299.69
2017-10-26T03:24:02.969Z,-299.69
2017-10-26T03:25:16.263Z,-299.67
2017-10-26T03:26:29.536Z,-299.74
2017-10-26T03:27:42.845Z,-299.76
2017-10-26T03:28:56.166Z,-299.73
2017-10-26T03:30:08.437Z,-299.71
2017-10-26T03:31:22.149Z,-299.72
2017-10-26T03:32:34.924Z,-299.74
2017-10-26T03:33:48.215Z,-299.71
2017-10-26T03:35:01.494Z,-299.7
2017-10-26T03:36:14.774Z,-299.69
2017-10-26T03:37:28.071Z,-299.71
2017-10-26T03:38:41.345Z,-299.71
2017-10-26T03:39:54.610Z,-299.71
2017-10-26T03:41:07.861Z,-299.73
2017-10-26T03:42:20.668Z,-299.75
2017-10-26T03:43:34.375Z,-299.77
2017-10-26T03:44:47.122Z,-299.77
2017-10-26T03:45:59.938Z,-299.76
2017-10-26T03:47:12.701Z,-299.77
2017-10-26T03:48:25.992Z,-299.76
2017-10-26T03:49:39.504Z,-299.76
2017-10-26T03:50:52.227Z,-299.78
2017-10-26T03:52:03.928Z,-299.83
2017-10-26T03:53:16.692Z,-299.88
2017-10-26T03:54:29.231Z,-299.87
2017-10-26T03:55:43.214Z,-299.83
2017-10-26T03:56:55.987Z,-299.83
2017-10-26T03:58:08.749Z,-299.81
2017-10-26T03:59:20.956Z,-299.84
2017-10-26T04:00:33.688Z,-299.84
2017-10-26T04:01:46.986Z,-299.84
2017-10-26T04:03:00.263Z,-299.82
2017-10-26T04:04:13.549Z,-299.79
2017-10-26T04:05:26.879Z,-299.75
2017-10-26T04:06:40.598Z,-299.72
2017-10-26T04:07:52.284Z,-299.7
2017-10-26T04:09:05.014Z,-299.71
2017-10-26T04:10:17.237Z,-299.76
2017-10-26T04:11:30.503Z,-299.77
2017-10-26T04:12:43.766Z,-299.77
2017-10-26T04:13:56.691Z,-299.79
2017-10-26T04:15:09.980Z,-299.81
2017-10-26T04:16:22.710Z,-299.81
2017-10-26T04:17:35.957Z,-299.8
2017-10-26T04:18:47.660Z,-299.82
2017-10-26T04:20:00.927Z,-299.8
2017-10-26T04:21:14.247Z,-299.74
2017-10-26T04:22:27.036Z,-299.72
2017-10-26T04:23:39.767Z,-299.71
2017-10-26T04:24:53.040Z,-299.69
2017-10-26T04:26:06.347Z,-299.66
2017-10-26T04:27:19.087Z,-299.66
2017-10-26T04:28:31.894Z,-299.69
2017-10-26T04:29:44.717Z,-299.68
2017-10-26T04:30:56.916Z,-299.69
2017-10-26T04:32:09.139Z,-299.66
2017-10-26T04:33:21.838Z,-299.65
2017-10-26T04:34:35.151Z,-299.63
2017-10-26T04:35:47.891Z,-299.62
2017-10-26T04:37:00.092Z,-299.62
2017-10-26T04:38:13.364Z,-299.69
2017-10-26T04:39:26.635Z,-299.71
2017-10-26T04:40:39.898Z,-299.7
2017-10-26T04:41:52.091Z,-299.69
2017-10-26T04:43:05.396Z,-299.69
2017-10-26T04:44:18.691Z,-299.69
2017-10-26T04:45:30.921Z,-299.68
2017-10-26T04:46:43.114Z,-299.67
2017-10-26T04:47:55.831Z,-299.67
2017-10-26T04:49:08.043Z,-299.67
2017-10-26T04:50:21.289Z,-299.67
2017-10-26T04:51:34.566Z,-299.67
2017-10-26T04:52:47.521Z,-299.66
2017-10-26T04:54:00.258Z,-299.66
2017-10-26T04:55:13.525Z,-299.64
2017-10-26T04:56:25.212Z,-299.66
2017-10-26T04:57:38.430Z,-299.67
2017-10-26T04:58:51.201Z,-299.7
2017-10-26T05:00:04.469Z,-299.73
2017-10-26T05:01:17.746Z,-299.73
2017-10-26T05:02:30.992Z,-299.74
2017-10-26T05:03:44.239Z,-299.74
2017-10-26T05:04:56.955Z,-299.72
2017-10-26T05:06:09.200Z,-299.75
2017-10-26T05:07:21.411Z,-299.76
2017-10-26T05:08:34.681Z,-299.77
2017-10-26T05:09:46.372Z,-299.75
2017-10-26T05:10:59.631Z,-299.75
2017-10-26T05:12:11.953Z,-299.79
2017-10-26T05:13:25.223Z,-299.78
2017-10-26T05:14:38.488Z,-299.78
2017-10-26T05:15:51.738Z,-299.75
2017-10-26T05:17:03.436Z,-299.76
2017-10-26T05:18:16.682Z,-299.77
2017-10-26T05:19:28.906Z,-299.78
2017-10-26T05:20:41.600Z,-299.75
2017-10-26T05:21:54.972Z,-299.74
2017-10-26T05:23:08.310Z,-299.75
2017-10-26T05:24:21.066Z,-299.76
2017-10-26T05:25:34.364Z,-299.76
2017-10-26T05:26:47.084Z,-299.73
2017-10-26T05:28:00.349Z,-299.71
2017-10-26T05:29:13.660Z,-299.71
2017-10-26T05:30:27.136Z,-299.72
2017-10-26T05:31:40.574Z,-299.74
2017-10-26T05:32:53.355Z,-299.74
2017-10-26T05:34:06.116Z,-299.76
2017-10-26T05:35:19.356Z,-299.74
2017-10-26T05:36:32.642Z,-299.74
2017-10-26T05:37:45.379Z,-299.76
2017-10-26T05:38:58.680Z,-299.78
2017-10-26T05:40:11.935Z,-299.78
2017-10-26T05:41:25.218Z,-299.76
2017-10-26T05:42:38.486Z,-299.73
2017-10-26T05:43:51.229Z,-299.73
2017-10-26T05:45:02.911Z,-299.74
2017-10-26T05:46:15.658Z,-299.72
2017-10-26T05:47:28.377Z,-299.71
2017-10-26T05:48:41.096Z,-299.68
2017-10-26T05:49:53.833Z,-299.66
2017-10-26T05:51:05.499Z,-299.68
2017-10-26T05:52:18.260Z,-299.7
2017-10-26T05:53:29.952Z,-299.72
2017-10-26T05:54:41.622Z,-299.72
2017-10-26T05:55:54.340Z,-299.73
2017-10-26T05:57:06.547Z,-299.72
2017-10-26T05:58:19.816Z,-299.73
2017-10-26T05:59:33.088Z,-299.77
2017-10-26T06:00:46.328Z,-299.79
2017-10-26T06:01:59.803Z,-299.78
2017-10-26T06:03:13.229Z,-299.78
2017-10-26T06:04:26.501Z,-299.77
2017-10-26T06:05:39.226Z,-299.75
2017-10-26T06:06:51.965Z,-299.79
2017-10-26T06:08:04.722Z,-299.77
2017-10-26T06:09:18.014Z,-299.79
2017-10-26T06:10:30.766Z,-299.77
2017-10-26T06:11:44.057Z,-299.76
2017-10-26T06:12:57.341Z,-299.79
2017-10-26T06:14:10.596Z,-299.77
2017-10-26T06:15:24.065Z,-299.77
2017-10-26T06:16:37.372Z,-299.77
2017-10-26T06:17:50.106Z,-299.75
2017-10-26T06:19:02.857Z,-299.73
2017-10-26T06:20:16.136Z,-299.74
2017-10-26T06:21:28.875Z,-299.73
2017-10-26T06:22:41.612Z,-299.72
2017-10-26T06:23:53.817Z,-299.72
2017-10-26T06:25:06.039Z,-299.73
2017-10-26T06:26:18.781Z,-299.75
2017-10-26T06:27:31.507Z,-299.75
2017-10-26T06:28:44.785Z,-299.76
2017-10-26T06:29:56.971Z,-299.75
2017-10-26T06:31:10.261Z,-299.76
2017-10-26T06:32:22.963Z,-299.76
2017-10-26T06:33:35.166Z,-299.75
2017-10-26T06:34:48.444Z,-299.75
2017-10-26T06:36:01.177Z,-299.75
2017-10-26T06:37:13.961Z,-299.76
2017-10-26T06:38:27.200Z,-299.75
2017-10-26T06:39:39.354Z,-299.75
2017-10-26T06:40:52.096Z,-299.75
2017-10-26T06:42:04.825Z,-299.76
2017-10-26T06:43:17.751Z,-299.75
2017-10-26T06:44:31.017Z,-299.78
2017-10-26T06:45:43.766Z,-299.81
2017-10-26T06:46:55.980Z,-299.82
2017-10-26T06:48:09.306Z,-299.82
2017-10-26T06:49:21.485Z,-299.82
2017-10-26T06:50:34.260Z,-299.8
2017-10-26T06:51:47.568Z,-299.79
2017-10-26T06:52:59.752Z,-299.79
2017-10-26T06:54:12.489Z,-299.79
2017-10-26T06:55:25.203Z,-299.85
2017-10-26T06:56:37.941Z,-299.86
2017-10-26T06:57:50.135Z,-299.83
2017-10-26T06:59:02.344Z,-299.81
2017-10-26T07:00:15.619Z,-299.81
2017-10-26T07:01:28.905Z,-299.79
2017-10-26T07:02:40.608Z,-299.8
2017-10-26T07:03:53.881Z,-299.8
2017-10-26T07:05:06.626Z,-299.81
2017-10-26T07:06:19.346Z,-299.79
2017-10-26T07:07:32.096Z,-299.83
2017-10-26T07:08:45.344Z,-299.87
2017-10-26T07:09:57.524Z,-299.85
2017-10-26T07:11:09.767Z,-299.86
2017-10-26T07:12:22.473Z,-299.79
2017-10-26T07:13:35.247Z,-299.79
2017-10-26T07:14:47.969Z,-299.82
2017-10-26T07:15:59.599Z,-299.84
2017-10-26T07:17:11.795Z,-299.86
2017-10-26T07:18:25.084Z,-299.53
2017-10-26T07:19:37.835Z,-299.41
2017-10-26T07:20:46.877Z,-299.23
2017-10-26T07:21:59.645Z,-299.03
2017-10-26T07:23:11.858Z,-298.91
2017-10-26T07:24:25.132Z,-298.8
2017-10-26T07:25:37.348Z,-298.68
2017-10-26T07:26:50.625Z,-298.6
2017-10-26T07:28:03.891Z,-298.58
2017-10-26T07:29:17.400Z,-298.58
2017-10-26T07:30:30.681Z,-298.58
2017-10-26T07:31:43.425Z,-298.59
2017-10-26T07:32:56.679Z,-298.57
2017-10-26T07:34:08.837Z,-298.57
2017-10-26T07:35:21.563Z,-298.53
2017-10-26T07:36:34.320Z,-298.54
2017-10-26T07:37:47.613Z,-298.52
2017-10-26T07:39:00.335Z,-298.52
2017-10-26T07:40:13.615Z,-298.52
2017-10-26T07:41:26.369Z,-298.52
2017-10-26T07:42:39.650Z,-298.52
2017-10-26T07:43:52.387Z,-298.52
2017-10-26T07:45:04.577Z,-298.52
2017-10-26T07:46:17.338Z,-298.52
2017-10-26T07:47:29.002Z,-298.52
2017-10-26T07:48:41.752Z,-298.52
2017-10-26T07:49:55.012Z,-298.52
2017-10-26T07:51:08.250Z,-298.52
2017-10-26T07:52:21.518Z,-298.52
2017-10-26T07:53:34.220Z,-298.52
2017-10-26T07:54:47.510Z,-298.52
2017-10-26T07:56:00.228Z,-298.52
2017-10-26T07:57:12.959Z,-298.52
2017-10-26T07:58:25.688Z,-298.52
2017-10-26T07:59:38.420Z,-298.52
2017-10-26T08:00:51.716Z,-298.52
2017-10-26T08:02:03.923Z,-298.52
2017-10-26T08:03:16.644Z,-298.52
2017-10-26T08:04:29.922Z,-298.52
2017-10-26T08:05:43.202Z,-298.52
2017-10-26T08:07:26.577Z,-298.52
2017-10-26T08:08:38.769Z,-298.52
2017-10-26T08:09:52.018Z,-298.52
2017-10-26T08:11:04.717Z,-298.52
2017-10-26T08:12:17.948Z,-298.52
2017-10-26T08:13:30.693Z,-298.52
2017-10-26T08:14:42.957Z,-298.52
2017-10-26T08:15:55.668Z,-298.52
2017-10-26T08:17:08.965Z,-298.52
2017-10-26T08:18:22.447Z,-298.52
2017-10-26T08:19:34.664Z,-298.52
2017-10-26T08:20:46.856Z,-298.52
2017-10-26T08:21:59.616Z,-298.52
2017-10-26T08:23:12.355Z,-298.52
2017-10-26T08:24:25.070Z,-298.52
2017-10-26T08:25:37.765Z,-298.52
2017-10-26T08:26:51.054Z,-298.52
2017-10-26T08:28:03.831Z,-298.52
2017-10-26T08:29:16.531Z,-298.52
2017-10-26T08:30:29.264Z,-298.52
2017-10-26T08:31:41.987Z,-298.52
2017-10-26T08:32:55.265Z,-298.52
2017-10-26T08:34:08.514Z,-298.52
2017-10-26T08:35:21.244Z,-298.52
2017-10-26T08:36:34.198Z,-298.52
2017-10-26T08:38:17.116Z,-298.52
2017-10-26T08:39:29.869Z,-298.52
2017-10-26T08:40:43.127Z,-298.52
2017-10-26T08:41:56.376Z,-298.52
2017-10-26T08:43:09.131Z,-298.52
2017-10-26T08:44:20.241Z,-298.52
2017-10-26T08:45:32.998Z,-298.52
2017-10-26T08:46:45.731Z,-298.52
2017-10-26T08:47:58.975Z,-298.52
2017-10-26T08:49:10.648Z,-298.52
2017-10-26T08:50:22.853Z,-298.52
2017-10-26T08:51:35.278Z,-298.52
2017-10-26T08:52:48.012Z,-298.52
2017-10-26T08:54:00.212Z,-298.52
2017-10-26T08:55:12.971Z,-298.52
2017-10-26T08:56:25.186Z,-298.52
2017-10-26T08:57:38.659Z,-298.52
2017-10-26T08:58:51.417Z,-298.52
2017-10-26T09:00:04.890Z,-298.52
2017-10-26T09:01:49.311Z,-298.52
2017-10-26T09:03:02.589Z,-298.52
2017-10-26T09:04:15.352Z,-298.52
2017-10-26T09:05:28.051Z,-298.52
2017-10-26T09:06:40.236Z,-298.52
2017-10-26T09:07:51.910Z,-298.52
2017-10-26T09:09:05.379Z,-298.52
2017-10-26T09:10:18.651Z,-298.52
2017-10-26T09:11:31.377Z,-298.52
2017-10-26T09:12:43.583Z,-298.52
2017-10-26T09:13:56.305Z,-298.52
2017-10-26T09:15:09.056Z,-298.52
2017-10-26T09:16:21.824Z,-298.52
2017-10-26T09:17:35.090Z,-298.52
2017-10-26T09:18:47.278Z,-298.52
2017-10-26T09:19:58.956Z,-298.52
2017-10-26T09:21:12.209Z,-298.52
2017-10-26T09:22:24.981Z,-298.52
2017-10-26T09:23:37.721Z,-298.52
2017-10-26T09:24:50.969Z,-298.52
2017-10-26T09:26:04.232Z,-298.52
2017-10-26T09:27:14.865Z,-298.52
2017-10-26T09:28:27.605Z,-298.52
2017-10-26T09:29:39.828Z,-298.52
2017-10-26T09:30:52.030Z,-298.52
2017-10-26T09:32:04.781Z,-298.52
2017-10-26T09:33:18.038Z,-298.52
2017-10-26T09:34:30.808Z,-298.52
2017-10-26T09:35:43.556Z,-298.52
2017-10-26T09:36:56.308Z,-298.52
2017-10-26T09:38:09.046Z,-298.52
2017-10-26T09:39:21.264Z,-298.52
2017-10-26T09:40:34.009Z,-298.52
2017-10-26T09:41:47.291Z,-298.52
2017-10-26T09:43:00.542Z,-298.52
2017-10-26T09:44:13.838Z,-298.52
2017-10-26T09:45:27.123Z,-298.52
2017-10-26T09:46:39.853Z,-298.52
2017-10-26T09:47:53.150Z,-298.52
2017-10-26T09:49:06.411Z,-298.52
2017-10-26T09:50:19.156Z,-298.52
2017-10-26T09:51:31.928Z,-298.52
2017-10-26T09:52:45.227Z,-298.52
2017-10-26T09:53:58.746Z,-298.52
2017-10-26T09:55:10.934Z,-298.52
2017-10-26T09:56:23.146Z,-298.52
2017-10-26T09:57:36.399Z,-298.52
2017-10-26T09:58:49.678Z,-298.52
2017-10-26T10:00:02.988Z,-298.52
2017-10-26T10:01:15.725Z,-298.52
2017-10-26T10:02:28.463Z,-298.52
2017-10-26T10:03:41.209Z,-298.52
2017-10-26T10:04:53.427Z,-298.52
2017-10-26T10:06:06.139Z,-298.52
2017-10-26T10:07:17.802Z,-298.52
2017-10-26T10:08:31.068Z,-298.52
2017-10-26T10:09:44.363Z,-298.52
2017-10-26T10:10:57.097Z,-298.52
2017-10-26T10:12:09.820Z,-298.52
2017-10-26T10:13:22.551Z,-298.52
2017-10-26T10:14:35.244Z,-298.52
2017-10-26T10:15:47.442Z,-298.52
2017-10-26T10:16:59.119Z,-298.52
2017-10-26T10:18:11.810Z,-298.52
2017-10-26T10:19:24.045Z,-298.52
2017-10-26T10:20:36.988Z,-298.52
2017-10-26T10:21:49.712Z,-298.52
2017-10-26T10:23:03.020Z,-298.52
2017-10-26T10:24:16.257Z,-298.52
2017-10-26T10:25:28.969Z,-298.52
2017-10-26T10:26:41.222Z,-298.52
2017-10-26T10:27:53.962Z,-298.52
2017-10-26T10:29:06.654Z,-298.52
2017-10-26T10:30:18.882Z,-298.52
2017-10-26T10:31:32.183Z,-298.52
2017-10-26T10:32:44.900Z,-298.52
2017-10-26T10:33:58.456Z,-298.52
2017-10-26T10:35:11.724Z,-298.52
2017-10-26T10:36:24.461Z,-298.52
2017-10-26T10:37:37.200Z,-298.52
2017-10-26T10:38:49.446Z,-298.52
2017-10-26T10:40:02.210Z,-298.52
2017-10-26T10:41:15.470Z,-298.52
2017-10-26T10:42:28.766Z,-298.52
2017-10-26T10:43:41.507Z,-298.52
2017-10-26T10:44:54.754Z,-298.52
2017-10-26T10:46:08.025Z,-298.52
2017-10-26T10:47:20.215Z,-298.52
2017-10-26T10:48:32.400Z,-298.52
2017-10-26T10:49:44.619Z,-298.52
2017-10-26T10:50:56.838Z,-298.52
2017-10-26T10:52:09.605Z,-298.52
2017-10-26T10:53:21.831Z,-298.52
2017-10-26T10:54:35.122Z,-298.52
2017-10-26T10:55:47.350Z,-298.52
2017-10-26T10:57:00.640Z,-298.52
2017-10-26T10:58:12.843Z,-298.52
2017-10-26T10:59:26.113Z,-298.52
2017-10-26T11:00:38.335Z,-298.52
2017-10-26T11:01:50.583Z,-298.52
2017-10-26T11:03:03.843Z,-298.52
2017-10-26T11:04:16.563Z,-298.52
2017-10-26T11:05:29.809Z,-298.52
2017-10-26T11:06:42.550Z,-298.52
2017-10-26T11:07:55.316Z,-298.52
2017-10-26T11:09:08.574Z,-298.52
2017-10-26T11:10:21.406Z,-298.52
2017-10-26T11:11:34.137Z,-298.52
2017-10-26T11:12:46.862Z,-298.52
2017-10-26T11:13:59.584Z,-298.52
2017-10-26T11:15:12.848Z,-298.52
2017-10-26T11:16:26.145Z,-298.52
2017-10-26T11:17:38.916Z,-298.52
2017-10-26T11:18:52.164Z,-298.52
2017-10-26T11:20:04.893Z,-298.52
2017-10-26T11:21:16.072Z,-298.52
2017-10-26T11:22:29.331Z,-298.52
2017-10-26T11:23:42.617Z,-298.52
2017-10-26T11:24:55.339Z,-298.52
2017-10-26T11:26:07.060Z,-298.52
2017-10-26T11:27:19.362Z,-298.52
2017-10-26T11:28:32.130Z,-298.52
2017-10-26T11:29:44.345Z,-298.52
2017-10-26T11:30:56.541Z,-298.52
2017-10-26T11:32:09.528Z,-298.52
2017-10-26T11:33:21.229Z,-298.52
2017-10-26T11:34:33.972Z,-298.52
2017-10-26T11:35:46.158Z,-298.52
2017-10-26T11:36:58.895Z,-298.52
2017-10-26T11:38:12.175Z,-298.52
2017-10-26T11:39:24.924Z,-298.52
2017-10-26T11:40:37.683Z,-298.52
2017-10-26T11:41:50.421Z,-298.52
2017-10-26T11:44:48.182Z,-298.52
2017-10-26T11:46:01.412Z,-298.52
2017-10-26T11:47:14.108Z,-298.52
2017-10-26T11:48:26.846Z,-298.52
2017-10-26T11:49:38.554Z,-298.52
2017-10-26T11:50:51.319Z,-298.52
2017-10-26T11:52:04.583Z,-298.52
2017-10-26T11:53:17.847Z,-298.52
2017-10-26T11:54:31.121Z,-298.52
2017-10-26T11:55:44.426Z,-298.52
2017-10-26T11:56:57.718Z,-298.52
2017-10-26T11:58:09.944Z,-298.52
2017-10-26T11:59:23.403Z,-298.52
2017-10-26T12:00:35.385Z,-298.52
2017-10-26T12:01:47.581Z,-298.52
2017-10-26T12:03:00.858Z,-298.52
2017-10-26T12:04:12.815Z,-298.52
2017-10-26T12:05:24.501Z,-298.52
2017-10-26T12:06:37.787Z,-298.52
2017-10-26T12:07:50.065Z,-298.52
2017-10-26T12:09:02.814Z,-298.52
2017-10-26T12:10:16.120Z,-298.52
2017-10-26T12:11:28.878Z,-298.52
2017-10-26T12:12:41.607Z,-298.52
2017-10-26T12:13:53.837Z,-298.52
2017-10-26T12:15:05.581Z,-298.52
2017-10-26T12:16:18.164Z,-298.52
2017-10-26T12:17:29.866Z,-298.52
2017-10-26T12:18:41.051Z,-298.52
2017-10-26T12:19:54.324Z,-298.52
2017-10-26T12:21:07.061Z,-298.52
2017-10-26T12:22:20.335Z,-298.52
2017-10-26T12:23:33.074Z,-298.52
2017-10-26T12:24:46.254Z,-298.52
2017-10-26T12:25:59.120Z,-298.52
2017-10-26T12:27:11.856Z,-298.52
2017-10-26T12:28:24.577Z,-298.52
2017-10-26T12:29:37.872Z,-298.52
2017-10-26T12:30:51.224Z,-298.52
2017-10-26T12:32:03.986Z,-298.52
2017-10-26T12:33:16.751Z,-298.52
2017-10-26T12:34:30.047Z,-298.52
2017-10-26T12:35:42.787Z,-298.52
2017-10-26T12:36:54.990Z,-298.52
2017-10-26T12:38:07.211Z,-298.52
2017-10-26T12:39:19.429Z,-298.52
2017-10-26T12:40:32.380Z,-298.52
2017-10-26T12:41:44.623Z,-298.52
2017-10-26T12:42:57.902Z,-298.52
2017-10-26T12:44:11.183Z,-298.52
2017-10-26T12:45:24.500Z,-298.52
2017-10-26T12:46:37.796Z,-298.52
2017-10-26T12:47:50.541Z,-298.52
2017-10-26T12:49:03.290Z,-298.52
2017-10-26T12:50:15.558Z,-298.52
2017-10-26T12:51:27.795Z,-298.52
2017-10-26T12:52:41.100Z,-298.52
2017-10-26T12:53:52.248Z,-298.52
2017-10-26T12:55:05.527Z,-298.52
2017-10-26T12:56:19.472Z,-298.52
2017-10-26T12:57:32.770Z,-298.52
2017-10-26T12:58:45.421Z,-298.52
2017-10-26T12:59:58.687Z,-298.52
2017-10-26T13:01:12.552Z,-298.52
2017-10-26T13:02:24.776Z,-298.52
2017-10-26T13:03:37.523Z,-298.52
2017-10-26T13:04:50.819Z,-298.52
2017-10-26T13:06:03.071Z,-298.52
2017-10-26T13:07:15.311Z,-298.52
2017-10-26T13:08:28.614Z,-298.52
2017-10-26T13:09:41.913Z,-298.52
2017-10-26T13:10:55.821Z,-298.52
2017-10-26T13:12:09.071Z,-298.52
2017-10-26T13:13:22.365Z,-298.52
2017-10-26T13:14:35.123Z,-298.52
2017-10-26T13:15:47.880Z,-298.52
2017-10-26T13:17:00.248Z,-298.52
2017-10-26T13:18:12.995Z,-298.52
2017-10-26T13:19:25.210Z,-298.52
2017-10-26T13:20:37.420Z,-298.52
2017-10-26T13:21:49.646Z,-298.52
2017-10-26T13:23:02.916Z,-298.52
2017-10-26T13:24:15.648Z,-298.52
2017-10-26T13:25:28.917Z,-298.52
2017-10-26T13:26:41.659Z,-298.52
2017-10-26T13:27:53.994Z,-298.52
2017-10-26T13:29:06.735Z,-298.52
2017-10-26T13:30:18.792Z,-298.52
2017-10-26T13:31:31.043Z,-298.52
2017-10-26T13:32:43.245Z,-298.52
2017-10-26T13:33:56.512Z,-298.52
2017-10-26T13:35:08.767Z,-298.52
2017-10-26T13:36:21.539Z,-298.52
2017-10-26T13:37:33.756Z,-298.52
2017-10-26T13:38:50.552Z,-298.52
2017-10-26T13:40:03.278Z,-298.52
2017-10-26T13:41:15.501Z,-298.52
2017-10-26T13:42:28.781Z,-298.52
2017-10-26T13:43:41.508Z,-298.52
2017-10-26T13:44:54.260Z,-298.52
2017-10-26T13:46:06.908Z,-298.52
2017-10-26T13:47:19.609Z,-298.52
2017-10-26T13:48:31.814Z,-298.52
2017-10-26T13:49:44.112Z,-298.52
2017-10-26T13:50:58.138Z,-298.52
2017-10-26T13:52:10.948Z,-298.52
2017-10-26T13:53:24.930Z,-298.52
2017-10-26T13:54:37.769Z,-298.52
2017-10-26T13:55:50.015Z,-298.52
2017-10-26T13:57:03.612Z,-298.52
2017-10-26T13:58:17.664Z,-298.52
2017-10-26T13:59:30.501Z,-298.52
2017-10-26T14:00:43.906Z,-298.52
2017-10-26T14:01:57.325Z,-298.52
2017-10-26T14:03:10.745Z,-298.52
2017-10-26T14:04:24.747Z,-298.52
2017-10-26T14:05:39.880Z,-298.52
2017-10-26T14:06:53.906Z,-298.52
2017-10-26T14:08:06.748Z,-298.52
2017-10-26T14:09:20.754Z,-298.52
2017-10-26T14:10:33.007Z,-298.52
2017-10-26T14:13:30.841Z,-298.52
2017-10-26T14:14:43.638Z,-298.52
2017-10-26T14:15:57.006Z,-298.52
2017-10-26T14:17:08.695Z,-298.52
2017-10-26T14:18:21.472Z,-298.52
2017-10-26T14:19:34.187Z,-298.52
2017-10-26T14:20:46.935Z,-298.52
2017-10-26T14:21:59.673Z,-298.52
2017-10-26T14:23:11.905Z,-298.52
2017-10-26T14:24:24.648Z,-298.52
2017-10-26T14:25:36.905Z,-298.52
2017-10-26T14:26:48.681Z,-298.52
2017-10-26T14:28:01.507Z,-298.52
2017-10-26T14:29:14.327Z,-298.52
2017-10-26T14:30:27.169Z,-298.52
2017-10-26T14:31:39.476Z,-298.52
2017-10-26T14:32:52.235Z,-298.52
2017-10-26T14:34:04.991Z,-298.52
2017-10-26T14:35:18.264Z,-298.52
2017-10-26T14:36:29.992Z,-298.52
2017-10-26T14:37:43.771Z,-298.52
2017-10-26T14:38:57.665Z,-298.52
2017-10-26T14:40:10.948Z,-298.52
2017-10-26T14:41:24.229Z,-298.52
2017-10-26T14:42:36.867Z,-298.52
2017-10-26T14:43:50.163Z,-298.52
2017-10-26T14:45:03.014Z,-298.52
2017-10-26T14:46:17.476Z,-298.52
2017-10-26T14:47:29.725Z,-298.52